Parks, Arizona
Current Conditions -  °F | °C
As of 9:57 PM on Tuesday 25 Nov 2014 (Local Time) from KFLG Reporting Station
Clear Clear  
Wind Chill: -2°   Ceiling: Unl
Heat Index: -2°   Visibility: 10mi
Dew Point: -12°   Wind: 0mph
Humidity: 47%   Direction: NA
Pressure: 30.41"   Gusts: NA
Location:  35.26°N, 111.95°W
Report Text: KFLG 260457Z AUTO 00000KT 10SM CLR M02/M12 A3041 RMK AO2 SLP282 T10171117 TSNO
Loading
Personal Weather Stations






























Interactive Weather Map New forecast layout! Learn more

10-Day Weather Forecast

Advertisements
Track Severe Weather on mobile